createdAt,value
2023-05-11T00:02:24.390Z,3.20
2023-05-11T00:04:56.974Z,4.35
2023-05-11T00:07:29.333Z,5.00
2023-05-11T00:10:01.481Z,1.92
2023-05-11T00:12:33.685Z,3.10
2023-05-11T00:15:06.452Z,4.72
2023-05-11T00:17:38.667Z,4.53
2023-05-11T00:20:11.339Z,4.43
2023-05-11T00:22:47.183Z,3.20
2023-05-11T00:25:19.629Z,5.43
2023-05-11T00:27:52.013Z,4.45
2023-05-11T00:30:24.307Z,4.15
2023-05-11T00:32:56.672Z,26.55
2023-05-11T00:35:29.197Z,4.67
2023-05-11T00:38:01.857Z,3.30
2023-05-11T00:40:34.084Z,3.28
2023-05-11T00:43:06.733Z,5.00
2023-05-11T00:45:40.065Z,4.93
2023-05-11T00:48:12.420Z,5.25
2023-05-11T00:50:45.013Z,5.20
2023-05-11T00:53:17.820Z,5.87
2023-05-11T00:55:50.059Z,6.70
2023-05-11T00:58:22.441Z,2.63
2023-05-11T01:00:54.605Z,3.40
2023-05-11T01:03:26.921Z,6.45
2023-05-11T01:06:29.537Z,2.92
2023-05-11T01:09:01.620Z,6.28
2023-05-11T01:11:49.509Z,7.13
2023-05-11T01:14:36.332Z,5.93
2023-05-11T01:17:23.786Z,5.90
2023-05-11T01:20:06.148Z,3.22
2023-05-11T01:22:45.038Z,3.90
2023-05-11T01:26:05.452Z,2.53
2023-05-11T01:28:53.121Z,4.90
2023-05-11T01:31:30.107Z,3.38
2023-05-11T01:34:06.585Z,4.82
2023-05-11T01:36:45.924Z,3.35
2023-05-11T01:39:22.411Z,3.10
2023-05-11T01:41:56.393Z,3.25
2023-05-11T01:44:33.455Z,6.28
2023-05-11T01:47:08.814Z,3.95
2023-05-11T01:49:44.311Z,5.65
2023-05-11T01:52:18.737Z,3.42
2023-05-11T01:54:52.987Z,4.82
2023-05-11T01:57:25.956Z,3.63
2023-05-11T02:00:01.573Z,2.95
2023-05-11T02:02:35.621Z,3.38
2023-05-11T02:05:08.799Z,5.13
2023-05-11T02:07:45.217Z,4.65
2023-05-11T02:10:18.804Z,4.47
2023-05-11T02:12:52.410Z,4.43
2023-05-11T02:15:26.691Z,5.00
2023-05-11T02:18:00.157Z,3.05
2023-05-11T02:20:33.753Z,2.85
2023-05-11T02:23:08.441Z,4.65
2023-05-11T02:25:42.258Z,3.08
2023-05-11T02:28:14.353Z,4.13
2023-05-11T02:30:50.623Z,2.03
2023-05-11T02:33:32.626Z,1.75
2023-05-11T02:36:06.478Z,4.13
2023-05-11T02:38:43.793Z,3.55
2023-05-11T02:41:21.737Z,3.58
2023-05-11T02:43:59.434Z,2.10
2023-05-11T02:46:35.751Z,3.15
2023-05-11T02:49:10.411Z,1.83
2023-05-11T02:51:45.197Z,2.03
2023-05-11T02:54:18.934Z,3.55
2023-05-11T02:56:56.943Z,2.45
2023-05-11T02:59:31.025Z,3.03
2023-05-11T03:02:03.705Z,4.40
2023-05-11T03:04:36.215Z,1.92
2023-05-11T03:07:09.547Z,1.27
2023-05-11T03:09:41.745Z,2.00
2023-05-11T03:12:15.232Z,5.65
2023-05-11T03:14:48.544Z,2.30
2023-05-11T03:17:21.826Z,1.95
2023-05-11T03:19:56.853Z,4.90
2023-05-11T03:22:31.868Z,2.17
2023-05-11T03:25:05.493Z,1.20
2023-05-11T03:27:42.384Z,2.75
2023-05-11T03:30:16.354Z,1.42
2023-05-11T03:32:52.975Z,1.85
2023-05-11T03:35:27.956Z,1.60
2023-05-11T03:38:01.368Z,1.52
2023-05-11T03:43:09.313Z,1.25
2023-05-11T03:45:44.280Z,3.35
2023-05-11T03:48:19.285Z,4.25
2023-05-11T03:50:53.178Z,1.80
2023-05-11T03:53:25.970Z,1.10
2023-05-11T03:55:58.746Z,1.05
2023-05-11T03:58:31.773Z,1.63
2023-05-11T04:01:04.303Z,1.52
2023-05-11T04:03:47.098Z,4.38
2023-05-11T04:06:20.471Z,8.83
2023-05-11T04:08:59.362Z,2.63
2023-05-11T04:11:37.630Z,2.00
2023-05-11T04:14:10.034Z,3.88
2023-05-11T04:16:42.508Z,4.50
2023-05-11T04:19:14.743Z,2.65
2023-05-11T04:21:47.716Z,3.65
2023-05-11T04:24:20.326Z,1.40
2023-05-11T04:26:57.915Z,1.00
2023-05-11T04:29:30.900Z,2.67
2023-05-11T04:32:03.081Z,2.50
2023-05-11T04:34:37.462Z,2.95
2023-05-11T04:37:11.484Z,1.60
2023-05-11T04:39:44.834Z,2.00
2023-05-11T04:42:17.558Z,1.85
2023-05-11T04:44:55.769Z,4.57
2023-05-11T04:50:00.823Z,1.48
2023-05-11T04:52:33.223Z,3.55
2023-05-11T04:55:10.638Z,2.05
2023-05-11T04:57:43.808Z,2.63
2023-05-11T05:00:16.832Z,2.35
2023-05-11T05:02:51.037Z,2.60
2023-05-11T05:05:24.432Z,5.90
2023-05-11T05:07:56.796Z,1.57
2023-05-11T05:10:30.688Z,1.80
2023-05-11T05:13:03.742Z,1.70
2023-05-11T05:15:37.190Z,1.50
2023-05-11T05:18:09.731Z,1.48
2023-05-11T05:20:42.837Z,1.75
2023-05-11T05:23:16.070Z,1.13
2023-05-11T05:25:48.270Z,3.90
2023-05-11T05:28:20.536Z,1.20
2023-05-11T05:30:53.093Z,2.78
2023-05-11T05:33:25.907Z,0.98
2023-05-11T05:35:58.065Z,1.33
2023-05-11T05:38:31.498Z,1.70
2023-05-11T05:41:06.273Z,1.10
2023-05-11T05:43:42.269Z,1.63
2023-05-11T05:46:15.146Z,1.98
2023-05-11T05:48:47.897Z,2.83
2023-05-11T05:51:20.688Z,1.70
2023-05-11T05:53:52.948Z,2.28
2023-05-11T05:56:27.686Z,1.02
2023-05-11T05:59:02.115Z,1.15
2023-05-11T06:01:35.651Z,4.32
2023-05-11T06:04:08.896Z,0.73
2023-05-11T06:06:41.991Z,0.70
2023-05-11T06:09:14.989Z,2.05
2023-05-11T06:11:48.678Z,2.25
2023-05-11T06:14:22.700Z,1.05
2023-05-11T06:16:55.510Z,0.90
2023-05-11T06:19:28.155Z,2.20
2023-05-11T06:22:00.756Z,0.93
2023-05-11T06:24:34.907Z,1.23
2023-05-11T06:27:07.796Z,3.17
2023-05-11T06:29:42.415Z,2.10
2023-05-11T06:32:15.175Z,2.00
2023-05-11T06:34:48.174Z,2.08
2023-05-11T06:37:21.329Z,3.60
2023-05-11T06:39:56.318Z,23.02
2023-05-11T06:42:28.572Z,5.83
2023-05-11T06:45:11.759Z,4.45
2023-05-11T06:47:47.311Z,1.92
2023-05-11T06:50:21.293Z,3.45
2023-05-11T06:52:54.622Z,2.72
2023-05-11T06:55:27.935Z,3.43
2023-05-11T06:58:00.189Z,3.03
2023-05-11T07:00:32.281Z,4.78
2023-05-11T07:03:04.993Z,1.92
2023-05-11T07:05:38.025Z,2.53
2023-05-11T07:08:10.133Z,2.28
2023-05-11T07:10:42.526Z,2.00
2023-05-11T07:13:14.799Z,3.17
2023-05-11T07:15:47.376Z,1.60
2023-05-11T07:18:19.795Z,2.60
2023-05-11T07:20:52.042Z,2.72
2023-05-11T07:23:24.541Z,1.83
2023-05-11T07:25:58.288Z,3.85
2023-05-11T07:28:30.387Z,1.77
2023-05-11T07:31:03.220Z,2.47
2023-05-11T07:33:38.060Z,1.25
2023-05-11T07:36:10.473Z,3.03
2023-05-11T07:38:42.612Z,3.08
2023-05-11T07:41:15.417Z,2.00
2023-05-11T07:43:47.754Z,4.57
2023-05-11T07:46:19.962Z,5.68
2023-05-11T07:49:03.426Z,1.60
2023-05-11T07:51:39.683Z,2.20
2023-05-11T07:54:11.955Z,2.45
2023-05-11T07:56:44.404Z,2.60
2023-05-11T07:59:16.933Z,4.13
2023-05-11T08:01:49.436Z,1.73
2023-05-11T08:04:21.581Z,1.27
2023-05-11T08:06:53.734Z,2.00
2023-05-11T08:09:26.324Z,1.38
2023-05-11T08:12:01.813Z,1.58
2023-05-11T08:14:34.462Z,1.17
2023-05-11T08:17:06.782Z,1.05
2023-05-11T08:19:39.250Z,1.35
2023-05-11T08:22:13.302Z,1.13
2023-05-11T08:24:47.276Z,1.13
2023-05-11T08:27:19.826Z,1.65
2023-05-11T08:29:52.299Z,0.90
2023-05-11T08:32:25.028Z,2.17
2023-05-11T08:34:57.867Z,1.92
2023-05-11T08:37:32.175Z,0.87
2023-05-11T08:40:04.809Z,0.75
2023-05-11T08:42:40.130Z,2.53
2023-05-11T08:45:13.607Z,1.60
2023-05-11T08:47:46.721Z,2.05
2023-05-11T08:50:18.989Z,1.35
2023-05-11T08:52:51.383Z,2.08
2023-05-11T08:55:26.432Z,3.90
2023-05-11T08:58:00.864Z,3.80
2023-05-11T09:00:34.644Z,2.53
2023-05-11T09:03:08.484Z,1.98
2023-05-11T09:05:41.490Z,2.10
2023-05-11T09:08:15.451Z,2.47
2023-05-11T09:10:49.865Z,5.07
2023-05-11T09:13:22.134Z,4.43
2023-05-11T09:15:54.322Z,2.80
2023-05-11T09:18:27.226Z,3.10
2023-05-11T09:21:02.350Z,2.72
2023-05-11T09:23:34.602Z,2.80
2023-05-11T09:26:17.580Z,2.65
2023-05-11T09:29:02.424Z,1.67
2023-05-11T09:31:41.925Z,1.25
2023-05-11T09:34:23.023Z,2.97
2023-05-11T09:36:57.106Z,2.25
2023-05-11T09:39:41.229Z,3.05
2023-05-11T09:42:18.270Z,2.50
2023-05-11T09:44:50.637Z,4.70
2023-05-11T09:47:23.222Z,2.08
2023-05-11T09:49:55.672Z,1.13
2023-05-11T09:52:27.819Z,1.10
2023-05-11T09:55:11.047Z,1.50
2023-05-11T09:57:43.119Z,1.92
2023-05-11T10:00:15.639Z,1.33
2023-05-11T10:03:03.514Z,1.33
2023-05-11T10:05:36.957Z,1.77
2023-05-11T10:08:10.894Z,1.63
2023-05-11T10:10:43.395Z,1.10
2023-05-11T10:15:52.611Z,1.52
2023-05-11T10:18:25.591Z,1.85
2023-05-11T10:20:58.755Z,2.10
2023-05-11T10:23:34.127Z,7.32
2023-05-11T10:26:06.558Z,4.38
2023-05-11T10:28:39.870Z,2.03
2023-05-11T10:33:48.619Z,1.33
2023-05-11T10:36:23.950Z,1.95
2023-05-11T10:38:58.905Z,2.03
2023-05-11T10:41:51.758Z,2.03
2023-05-11T10:44:51.601Z,2.88
2023-05-11T10:47:45.193Z,3.15
2023-05-11T10:50:43.825Z,4.70
2023-05-11T10:53:21.164Z,3.75
2023-05-11T10:56:17.036Z,3.35
2023-05-11T10:59:20.672Z,5.07
2023-05-11T11:01:59.210Z,6.35
2023-05-11T11:04:47.952Z,3.65
2023-05-11T11:07:21.129Z,3.63
2023-05-11T11:10:07.537Z,3.65
2023-05-11T11:13:01.214Z,1.30
2023-05-11T11:15:56.749Z,1.80
2023-05-11T11:18:34.029Z,1.35
2023-05-11T11:21:07.431Z,1.70
2023-05-11T11:23:49.422Z,0.85
2023-05-11T11:26:48.203Z,1.33
2023-05-11T11:29:20.425Z,2.08
2023-05-11T11:31:52.657Z,3.45
2023-05-11T11:34:25.402Z,3.00
2023-05-11T11:37:06.893Z,2.83
2023-05-11T11:39:42.094Z,1.08
2023-05-11T11:42:40.542Z,0.93
2023-05-11T11:45:32.077Z,2.13
2023-05-11T11:48:17.133Z,2.65
2023-05-11T11:51:00.451Z,1.00
2023-05-11T11:53:39.876Z,1.10
2023-05-11T11:56:14.785Z,1.42
2023-05-11T11:58:47.189Z,2.88
2023-05-11T12:01:23.998Z,3.40
2023-05-11T12:04:06.219Z,4.07
2023-05-11T12:06:40.315Z,1.55
2023-05-11T12:09:19.735Z,1.17
2023-05-11T12:11:53.317Z,2.10
2023-05-11T12:14:26.533Z,1.38
2023-05-11T12:17:03.832Z,1.02
2023-05-11T12:19:36.637Z,1.40
2023-05-11T12:22:11.011Z,3.92
2023-05-11T12:24:43.632Z,2.17
2023-05-11T12:27:19.038Z,3.77
2023-05-11T12:29:51.805Z,3.13
2023-05-11T12:32:31.724Z,4.03
2023-05-11T12:35:05.466Z,1.67
2023-05-11T12:37:41.695Z,4.05
2023-05-11T12:40:14.711Z,3.15
2023-05-11T12:42:53.888Z,2.47
2023-05-11T12:45:27.749Z,1.52
2023-05-11T12:48:00.858Z,1.20
2023-05-11T12:50:33.075Z,3.05
2023-05-11T12:53:18.560Z,0.63
2023-05-11T12:56:00.314Z,1.42
2023-05-11T12:58:40.601Z,0.73
2023-05-11T13:01:13.171Z,1.65
2023-05-11T13:03:48.897Z,1.60
2023-05-11T13:06:21.964Z,3.30
2023-05-11T13:08:54.416Z,2.03
2023-05-11T13:11:27.536Z,2.03
2023-05-11T13:14:00.039Z,4.40
2023-05-11T13:16:34.177Z,3.67
2023-05-11T13:19:08.676Z,3.15
2023-05-11T13:21:41.217Z,5.00
2023-05-11T13:24:21.857Z,3.75
2023-05-11T13:26:58.106Z,2.95
2023-05-11T13:29:30.667Z,1.67
2023-05-11T13:32:06.335Z,2.60
2023-05-11T13:34:39.072Z,2.20
2023-05-11T13:37:15.549Z,4.97
2023-05-11T13:39:48.287Z,3.70
2023-05-11T13:42:20.764Z,2.22
2023-05-11T13:44:53.023Z,2.53
2023-05-11T13:47:26.583Z,5.20
2023-05-11T13:49:59.835Z,2.05
2023-05-11T13:52:32.499Z,4.18
2023-05-11T13:55:05.460Z,4.10
2023-05-11T13:57:37.908Z,4.45
2023-05-11T14:00:11.138Z,5.13
2023-05-11T14:02:48.517Z,2.55
2023-05-11T14:05:21.395Z,4.18
2023-05-11T14:07:53.865Z,3.23
2023-05-11T14:10:26.968Z,2.13
2023-05-11T14:12:59.148Z,2.17
2023-05-11T14:15:31.707Z,3.55
2023-05-11T14:18:05.445Z,2.65
2023-05-11T14:23:10.745Z,4.18
2023-05-11T14:25:43.808Z,2.28
2023-05-11T14:28:16.495Z,3.35
2023-05-11T14:30:50.011Z,3.10
2023-05-11T14:33:22.498Z,5.68
2023-05-11T14:35:55.803Z,2.58
2023-05-11T14:38:29.689Z,4.55
2023-05-11T14:41:02.628Z,7.38
2023-05-11T14:43:35.660Z,3.83
2023-05-11T14:46:08.218Z,2.95
2023-05-11T14:48:41.290Z,2.10
2023-05-11T14:51:13.720Z,2.75
2023-05-11T14:53:47.513Z,3.33
2023-05-11T14:56:20.507Z,1.83
2023-05-11T14:58:53.997Z,3.00
2023-05-11T15:01:26.669Z,4.68
2023-05-11T15:03:59.300Z,4.85
2023-05-11T15:06:32.152Z,2.45
2023-05-11T15:09:04.449Z,3.20
2023-05-11T15:11:37.593Z,2.95
2023-05-11T15:14:11.046Z,3.53
2023-05-11T15:16:43.971Z,1.75
2023-05-11T15:19:16.633Z,2.53
2023-05-11T15:21:48.913Z,2.93
2023-05-11T15:24:21.754Z,2.72
2023-05-11T15:26:54.809Z,5.07
2023-05-11T15:29:27.646Z,2.60
2023-05-11T15:32:00.987Z,2.38
2023-05-11T15:34:37.525Z,2.25
2023-05-11T15:37:16.771Z,2.67
2023-05-11T15:39:49.351Z,5.53
2023-05-11T15:42:21.727Z,2.67
2023-05-11T15:44:54.111Z,3.10
2023-05-11T15:47:26.959Z,8.02
2023-05-11T15:49:59.252Z,7.07
2023-05-11T15:52:32.324Z,6.80
2023-05-11T15:55:05.414Z,3.13
2023-05-11T15:57:37.998Z,3.17
2023-05-11T16:00:11.561Z,5.72
2023-05-11T16:02:45.985Z,7.40
2023-05-11T16:05:18.717Z,5.43
2023-05-11T16:07:51.290Z,6.38
2023-05-11T16:10:23.560Z,4.32
2023-05-11T16:12:58.727Z,5.43
2023-05-11T16:15:32.516Z,3.90
2023-05-11T16:20:38.408Z,3.60
2023-05-11T16:23:10.889Z,6.70
2023-05-11T16:25:43.607Z,6.88
2023-05-11T16:28:15.896Z,2.13
2023-05-11T16:30:48.392Z,4.07
2023-05-11T16:33:20.928Z,3.30
2023-05-11T16:35:53.533Z,4.57
2023-05-11T16:38:25.787Z,3.75
2023-05-11T16:41:00.491Z,2.47
2023-05-11T16:43:33.312Z,4.78
2023-05-11T16:46:06.363Z,3.03
2023-05-11T16:48:38.650Z,4.22
2023-05-11T16:51:11.275Z,3.72
2023-05-11T16:53:45.068Z,3.13
2023-05-11T16:56:17.965Z,4.43
2023-05-11T16:58:50.207Z,2.42
2023-05-11T17:01:22.743Z,2.45
2023-05-11T17:03:55.278Z,3.83
2023-05-11T17:06:27.977Z,3.22
2023-05-11T17:09:00.183Z,3.53
2023-05-11T17:11:32.460Z,3.83
2023-05-11T17:14:08.153Z,3.83
2023-05-11T17:16:43.397Z,4.35
2023-05-11T17:19:16.971Z,5.25
2023-05-11T17:21:50.775Z,6.15
2023-05-11T17:26:55.167Z,8.07
2023-05-11T17:29:27.503Z,7.13
2023-05-11T17:32:00.002Z,8.23
2023-05-11T17:34:32.395Z,8.68
2023-05-11T17:37:06.177Z,6.00
2023-05-11T17:39:38.382Z,5.88
2023-05-11T17:42:12.121Z,7.00
2023-05-11T17:44:44.823Z,6.15
2023-05-11T17:47:19.894Z,6.85
2023-05-11T17:49:53.831Z,6.90
2023-05-11T17:52:26.513Z,5.33
2023-05-11T17:54:58.934Z,6.90
2023-05-11T17:57:31.439Z,4.45
2023-05-11T18:00:05.191Z,4.13
2023-05-11T18:02:42.740Z,4.55
2023-05-11T18:05:16.374Z,7.43
2023-05-11T18:10:22.425Z,6.60
2023-05-11T18:12:55.103Z,5.00
2023-05-11T18:15:27.648Z,7.47
2023-05-11T18:17:59.888Z,5.28
2023-05-11T18:20:32.145Z,4.78
2023-05-11T18:23:05.469Z,5.97
2023-05-11T18:25:40.193Z,4.80
2023-05-11T18:28:13.081Z,7.95
2023-05-11T18:30:45.328Z,6.47
2023-05-11T18:33:17.832Z,5.45
2023-05-11T18:35:51.914Z,5.57
2023-05-11T18:38:24.176Z,5.05
2023-05-11T18:40:56.651Z,5.13
2023-05-11T18:43:28.853Z,5.70
2023-05-11T18:46:01.130Z,3.50
2023-05-11T18:48:33.836Z,4.47
2023-05-11T18:51:07.209Z,7.77
2023-05-11T18:53:39.528Z,13.73
2023-05-11T18:56:11.804Z,11.52
2023-05-11T18:58:48.192Z,13.32
2023-05-11T19:01:20.704Z,12.80
2023-05-11T19:03:52.925Z,12.50
2023-05-11T19:06:25.222Z,8.05
2023-05-11T19:08:57.625Z,9.23
2023-05-11T19:11:30.132Z,9.73
2023-05-11T19:14:02.810Z,8.95
2023-05-11T19:16:36.070Z,11.47
2023-05-11T19:19:08.600Z,15.02
2023-05-11T19:21:42.722Z,10.48
2023-05-11T19:24:15.761Z,9.85
2023-05-11T19:26:58.872Z,9.07
2023-05-11T19:29:38.608Z,8.77
2023-05-11T19:32:10.940Z,12.38
2023-05-11T19:34:43.432Z,9.65
2023-05-11T19:37:15.671Z,10.18
2023-05-11T19:39:49.046Z,11.15
2023-05-11T19:42:28.692Z,9.98
2023-05-11T19:45:11.750Z,14.90
2023-05-11T19:47:45.048Z,11.30
2023-05-11T19:50:21.108Z,13.20
2023-05-11T19:52:55.583Z,16.10
2023-05-11T19:55:27.817Z,14.65
2023-05-11T19:58:00.529Z,14.50
2023-05-11T20:00:33.073Z,11.68
2023-05-11T20:03:06.681Z,15.18
2023-05-11T20:08:12.079Z,10.73
2023-05-11T20:10:44.430Z,9.90
2023-05-11T20:13:17.392Z,21.00
2023-05-11T20:15:49.737Z,11.93
2023-05-11T20:18:22.090Z,10.32
2023-05-11T20:20:54.264Z,11.40
2023-05-11T20:23:27.703Z,8.23
2023-05-11T20:25:59.900Z,10.88
2023-05-11T20:28:32.209Z,9.90
2023-05-11T20:31:05.259Z,11.75
2023-05-11T20:36:12.988Z,10.13
2023-05-11T20:38:45.535Z,12.93
2023-05-11T20:41:17.982Z,10.50
2023-05-11T20:43:50.937Z,12.05
2023-05-11T20:46:23.325Z,14.73
2023-05-11T20:48:56.893Z,9.38
2023-05-11T20:51:29.059Z,10.68
2023-05-11T20:54:01.452Z,13.98
2023-05-11T20:56:36.917Z,10.68
2023-05-11T21:00:03.778Z,9.68
2023-05-11T21:02:02.078Z,10.52
2023-05-11T21:04:36.237Z,9.68
2023-05-11T21:07:08.667Z,14.35
2023-05-11T21:09:41.618Z,10.20
2023-05-11T21:12:13.856Z,16.67
2023-05-11T21:14:46.086Z,15.25
2023-05-11T21:17:18.487Z,16.40
2023-05-11T21:19:51.798Z,9.98
2023-05-11T21:22:24.267Z,10.98
2023-05-11T21:24:57.452Z,6.40
2023-05-11T21:27:29.902Z,14.38
2023-05-11T21:30:02.203Z,13.55
2023-05-11T21:32:34.988Z,7.45
2023-05-11T21:35:07.637Z,17.00
2023-05-11T21:37:40.046Z,12.52
2023-05-11T21:40:12.729Z,11.63
2023-05-11T21:42:45.007Z,13.90
2023-05-11T21:45:17.136Z,16.02
2023-05-11T21:47:49.505Z,22.20
2023-05-11T21:50:21.905Z,16.70
2023-05-11T21:52:54.052Z,16.20
2023-05-11T21:55:26.272Z,23.05
2023-05-11T21:57:58.878Z,18.02
2023-05-11T22:00:33.010Z,23.30
2023-05-11T22:03:05.953Z,27.52
2023-05-11T22:05:38.421Z,26.20
2023-05-11T22:08:15.388Z,21.55
2023-05-11T22:10:48.547Z,21.10
2023-05-11T22:13:20.829Z,25.25
2023-05-11T22:15:53.803Z,40.85
2023-05-11T22:18:26.008Z,19.67
2023-05-11T22:20:58.263Z,27.88
2023-05-11T22:23:31.362Z,33.72
2023-05-11T22:26:03.945Z,27.75
2023-05-11T22:28:36.226Z,22.70
2023-05-11T22:31:08.608Z,38.15
2023-05-11T22:33:41.688Z,26.08
2023-05-11T22:36:13.817Z,28.20
2023-05-11T22:38:46.706Z,23.35
2023-05-11T22:41:18.883Z,28.02
2023-05-11T22:43:51.531Z,32.08
2023-05-11T22:46:24.255Z,21.25
2023-05-11T22:48:57.083Z,30.45
2023-05-11T22:51:29.269Z,18.17
2023-05-11T22:54:01.747Z,19.92
2023-05-11T22:56:34.304Z,17.00
2023-05-11T22:59:06.777Z,15.48
2023-05-11T23:01:39.066Z,18.08
2023-05-11T23:04:11.388Z,12.05
2023-05-11T23:06:43.529Z,16.42
2023-05-11T23:09:16.205Z,14.85
2023-05-11T23:11:49.111Z,11.95
2023-05-11T23:14:21.739Z,18.10
2023-05-11T23:16:54.151Z,16.95
2023-05-11T23:19:27.290Z,17.42
2023-05-11T23:21:59.920Z,16.42
2023-05-11T23:24:32.181Z,22.63
2023-05-11T23:27:04.664Z,15.60
2023-05-11T23:29:37.855Z,18.65
2023-05-11T23:32:10.098Z,17.95
2023-05-11T23:34:42.907Z,11.35
2023-05-11T23:37:15.597Z,11.32
2023-05-11T23:39:48.165Z,18.33
2023-05-11T23:42:20.519Z,10.00
2023-05-11T23:44:53.015Z,14.10
2023-05-11T23:47:25.309Z,11.00
2023-05-11T23:49:58.591Z,15.38
2023-05-11T23:52:30.781Z,17.33
2023-05-11T23:55:04.768Z,15.57
2023-05-11T23:57:37.373Z,10.25
